Time;durP1;ratioP1;P1;durP2;ratioP2;P2;SDS_P1;SDS_P2;PMS_P1;PMS_P2;Temp;Humidity;BMP_temperature;BMP_pressure;BME280_temperature;BME280_humidity;BME280_pressure;Samples;Min_cycle;Max_cycle;Signal;HPM_P1;HPM_P2
2021/01/06 00:00:43;;;;;;;29.50;17.90;;;;;;;;;;5042867;28;20059;-83
2021/01/06 00:03:11;;;;;;;27.70;15.60;;;;;;;;;;5043875;28;20021;-83
2021/01/06 00:05:37;;;;;;;29.65;15.98;;;;;;;;;;5046941;28;20099;-83
2021/01/06 00:08:03;;;;;;;30.10;16.58;;;;;;;;;;5043458;28;20026;-83
2021/01/06 00:10:29;;;;;;;29.00;16.50;;;;;;;;;;5037101;28;20029;-83
2021/01/06 00:12:56;;;;;;;33.30;18.02;;;;;;;;;;5058974;28;20033;-83
2021/01/06 00:15:29;;;;;;;31.40;15.45;;;;;;;;;;5049190;28;20083;-83
2021/01/06 00:17:55;;;;;;;31.33;16.65;;;;;;;;;;5040833;28;20415;-83
2021/01/06 00:20:23;;;;;;;32.58;18.17;;;;;;;;;;5032916;28;20021;-83
2021/01/06 00:22:49;;;;;;;33.17;18.48;;;;;;;;;;5039012;28;20100;-84
2021/01/06 00:25:23;;;;;;;34.72;19.13;;;;;;;;;;5050376;28;20144;-84
2021/01/06 00:27:49;;;;;;;32.58;18.67;;;;;;;;;;5050739;28;20158;-84
2021/01/06 00:30:21;;;;;;;33.50;18.13;;;;;;;;;;5038316;28;20562;-85
2021/01/06 00:32:47;;;;;;;;;;;;;;;;;;5050251;28;20039;-85
2021/01/06 00:35:13;;;;;;;33.47;20.58;;;;;;;;;;5056521;28;19940;-84
2021/01/06 00:37:39;;;;;;;35.83;17.23;;;;;;;;;;5039139;28;20049;-85
2021/01/06 00:40:06;;;;;;;38.03;22.38;;;;;;;;;;5058714;28;20060;-85
2021/01/06 00:42:35;;;;;;;36.90;18.50;;;;;;;;;;5044506;28;20121;-84
2021/01/06 00:45:01;;;;;;;37.40;23.02;;;;;;;;;;5045476;28;20104;-84
2021/01/06 00:47:27;;;;;;;34.83;18.10;;;;;;;;;;5056610;28;20025;-84
2021/01/06 00:49:53;;;;;;;45.10;19.83;;;;;;;;;;5041395;28;20035;-84
2021/01/06 00:52:21;;;;;;;38.08;22.05;;;;;;;;;;5057395;28;20041;-84
2021/01/06 00:54:48;;;;;;;38.13;20.23;;;;;;;;;;5050746;28;20033;-85
2021/01/06 00:57:14;;;;;;;40.90;18.85;;;;;;;;;;5042092;28;20037;-83
2021/01/06 00:59:40;;;;;;;40.28;19.45;;;;;;;;;;5055455;28;20053;-84
2021/01/06 01:02:07;;;;;;;40.28;21.15;;;;;;;;;;5037279;28;20030;-84
2021/01/06 01:04:33;;;;;;;36.95;17.67;;;;;;;;;;5041767;28;20025;-85
2021/01/06 01:06:59;;;;;;;39.60;20.42;;;;;;;;;;5050218;28;20108;-84
2021/01/06 01:09:25;;;;;;;36.10;18.70;;;;;;;;;;5050357;28;20029;-85
2021/01/06 01:11:51;;;;;;;38.70;19.02;;;;;;;;;;5036526;28;20537;-85
2021/01/06 01:14:17;;;;;;;33.63;17.35;;;;;;;;;;5046073;28;20442;-83
2021/01/06 01:16:43;;;;;;;38.88;19.80;;;;;;;;;;5027059;28;20041;-84
2021/01/06 01:19:14;;;;;;;36.42;18.30;;;;;;;;;;5040750;28;20033;-83
2021/01/06 01:21:40;;;;;;;41.35;19.50;;;;;;;;;;5046391;28;20553;-82
2021/01/06 01:24:07;;;;;;;40.63;20.42;;;;;;;;;;5036377;28;20099;-83
2021/01/06 01:26:33;;;;;;;37.97;17.30;;;;;;;;;;5050145;28;20047;-83
2021/01/06 01:28:59;;;;;;;38.85;20.08;;;;;;;;;;5053896;28;20055;-83
2021/01/06 01:31:36;;;;;;;40.70;20.10;;;;;;;;;;5056748;28;20044;-83
2021/01/06 01:34:02;;;;;;;45.72;22.92;;;;;;;;;;5043860;28;20119;-81
2021/01/06 01:36:28;;;;;;;42.90;21.80;;;;;;;;;;5050808;28;20076;-82
2021/01/06 01:38:54;;;;;;;41.00;22.55;;;;;;;;;;5044589;28;20048;-83
2021/01/06 01:41:25;;;;;;;42.05;21.85;;;;;;;;;;5051913;28;20032;-83
2021/01/06 01:43:52;;;;;;;42.70;19.88;;;;;;;;;;5038970;28;20033;-82
2021/01/06 01:46:30;;;;;;;44.63;23.30;;;;;;;;;;5045054;28;20017;-83
2021/01/06 01:48:56;;;;;;;45.83;21.88;;;;;;;;;;5049010;28;20035;-83
2021/01/06 01:51:31;;;;;;;46.75;22.77;;;;;;;;;;5051874;28;20065;-83
2021/01/06 01:54:06;;;;;;;42.72;22.92;;;;;;;;;;5045418;28;20163;-83
2021/01/06 01:56:46;;;;;;;46.03;21.10;;;;;;;;;;5030783;28;20036;-83
2021/01/06 01:59:35;;;;;;;50.63;22.05;;;;;;;;;;5042764;28;20048;-83
2021/01/06 02:02:07;;;;;;;50.80;29.27;;;;;;;;;;5039490;28;20044;-83
2021/01/06 02:04:35;;;;;;;49.20;23.75;;;;;;;;;;5022934;28;20566;-83
2021/01/06 02:07:11;;;;;;;46.85;23.35;;;;;;;;;;5047542;28;20049;-83
2021/01/06 02:09:41;;;;;;;52.78;27.40;;;;;;;;;;5045920;28;20028;-84
2021/01/06 02:12:11;;;;;;;50.85;27.52;;;;;;;;;;5027811;28;20029;-83
2021/01/06 02:14:43;;;;;;;46.67;23.30;;;;;;;;;;5044739;28;20028;-83
2021/01/06 02:17:11;;;;;;;45.30;25.77;;;;;;;;;;5033215;28;20132;-83
2021/01/06 02:19:39;;;;;;;41.17;22.65;;;;;;;;;;5037786;28;20028;-83
2021/01/06 02:22:06;;;;;;;44.83;25.67;;;;;;;;;;5052408;28;20029;-83
2021/01/06 02:24:33;;;;;;;42.25;20.13;;;;;;;;;;5053051;28;20243;-83
2021/01/06 02:26:59;;;;;;;43.53;22.38;;;;;;;;;;5058707;28;20095;-83
2021/01/06 02:29:25;;;;;;;41.85;21.02;;;;;;;;;;5019811;28;20034;-83
2021/01/06 02:31:51;;;;;;;44.28;23.77;;;;;;;;;;5045564;28;20021;-83
2021/01/06 02:34:17;;;;;;;39.58;21.55;;;;;;;;;;5038604;28;20744;-83
2021/01/06 02:36:43;;;;;;;45.10;26.38;;;;;;;;;;5051696;28;20095;-83
2021/01/06 02:39:10;;;;;;;40.65;23.30;;;;;;;;;;5030137;28;20052;-83
2021/01/06 02:41:38;;;;;;;47.85;26.52;;;;;;;;;;5045578;28;20408;-83
2021/01/06 02:44:04;;;;;;;49.20;29.17;;;;;;;;;;5049610;28;20025;-83
2021/01/06 02:46:31;;;;;;;47.00;28.17;;;;;;;;;;5032501;28;20028;-84
2021/01/06 02:48:57;;;;;;;47.70;26.00;;;;;;;;;;5032671;28;20044;-84
2021/01/06 02:51:33;;;;;;;48.15;28.05;;;;;;;;;;5046994;28;20047;-84
2021/01/06 02:54:02;;;;;;;44.70;25.88;;;;;;;;;;5048072;28;20055;-83
2021/01/06 02:56:28;;;;;;;46.47;28.50;;;;;;;;;;5034193;28;20575;-83
2021/01/06 02:58:55;;;;;;;44.90;23.17;;;;;;;;;;5048103;28;20029;-84
2021/01/06 03:01:24;;;;;;;41.20;21.27;;;;;;;;;;5047320;28;20478;-83
2021/01/06 03:03:51;;;;;;;38.70;21.50;;;;;;;;;;5043018;28;20029;-83
2021/01/06 03:06:23;;;;;;;39.08;22.02;;;;;;;;;;5029943;28;20183;-82
2021/01/06 03:08:49;;;;;;;39.55;20.25;;;;;;;;;;5041369;28;20028;-83
2021/01/06 03:11:15;;;;;;;37.78;21.00;;;;;;;;;;5036175;28;20120;-83
2021/01/06 03:13:41;;;;;;;46.45;23.67;;;;;;;;;;5030346;28;20025;-83
2021/01/06 03:16:07;;;;;;;41.58;25.00;;;;;;;;;;5046588;28;20020;-83
2021/01/06 03:18:34;;;;;;;43.03;21.83;;;;;;;;;;5058633;28;20021;-83
2021/01/06 03:21:02;;;;;;;42.35;22.83;;;;;;;;;;5042778;28;20041;-83
2021/01/06 03:23:36;;;;;;;48.85;22.15;;;;;;;;;;5051922;28;20060;-83
2021/01/06 03:26:04;;;;;;;41.72;20.33;;;;;;;;;;5028313;28;20032;-83
2021/01/06 03:28:32;;;;;;;43.42;24.30;;;;;;;;;;5051673;28;20403;-82
2021/01/06 03:30:58;;;;;;;45.20;22.08;;;;;;;;;;5048591;28;20075;-83
2021/01/06 03:33:31;;;;;;;41.42;23.65;;;;;;;;;;5050150;28;20514;-82
2021/01/06 03:36:00;;;;;;;45.58;23.52;;;;;;;;;;5048525;28;20028;-83
2021/01/06 03:38:26;;;;;;;42.03;22.60;;;;;;;;;;5047124;28;20021;-82
2021/01/06 03:40:53;;;;;;;43.65;25.52;;;;;;;;;;5035685;28;20033;-82
2021/01/06 03:43:19;;;;;;;40.15;23.38;;;;;;;;;;5040053;28;20104;-82
2021/01/06 03:45:48;;;;;;;38.15;21.17;;;;;;;;;;5029865;28;20452;-82
2021/01/06 03:48:19;;;;;;;35.38;19.50;;;;;;;;;;5041468;28;20033;-82
2021/01/06 03:50:46;;;;;;;37.15;19.88;;;;;;;;;;5048622;28;20033;-83
2021/01/06 03:53:25;;;;;;;31.98;20.42;;;;;;;;;;5027517;28;20029;-83
2021/01/06 03:55:58;;;;;;;31.20;18.42;;;;;;;;;;5022691;28;20575;-83
2021/01/06 03:58:48;;;;;;;36.88;17.40;;;;;;;;;;5051061;28;20495;-83
2021/01/06 04:01:37;;;;;;;32.42;17.55;;;;;;;;;;5047704;28;20483;-84
2021/01/06 04:04:09;;;;;;;33.97;18.63;;;;;;;;;;5054195;28;20027;-83
2021/01/06 04:06:37;;;;;;;35.38;19.40;;;;;;;;;;5037793;28;20037;-83
2021/01/06 04:09:05;;;;;;;33.00;18.67;;;;;;;;;;5031255;28;20048;-84
2021/01/06 04:11:34;;;;;;;37.30;19.85;;;;;;;;;;5026429;28;20025;-84
2021/01/06 04:14:00;;;;;;;34.10;18.02;;;;;;;;;;5046469;28;20029;-84
2021/01/06 04:16:26;;;;;;;30.92;16.77;;;;;;;;;;5041012;28;20079;-84
2021/01/06 04:18:52;;;;;;;35.08;19.63;;;;;;;;;;5041934;28;20063;-84
2021/01/06 04:21:18;;;;;;;34.08;17.92;;;;;;;;;;5050672;28;20017;-84
2021/01/06 04:23:44;;;;;;;33.72;19.08;;;;;;;;;;5053604;28;20025;-83
2021/01/06 04:26:12;;;;;;;34.42;16.63;;;;;;;;;;5035822;28;20182;-84
2021/01/06 04:28:38;;;;;;;32.55;17.42;;;;;;;;;;5030112;28;20068;-85
2021/01/06 04:31:14;;;;;;;33.75;17.23;;;;;;;;;;5051909;28;20021;-84
2021/01/06 04:33:40;;;;;;;31.08;16.90;;;;;;;;;;5034106;28;20032;-83
2021/01/06 04:36:14;;;;;;;29.35;17.30;;;;;;;;;;5039465;28;20037;-83
2021/01/06 04:38:41;;;;;;;27.80;15.82;;;;;;;;;;5033805;28;20064;-83
2021/01/06 04:41:22;;;;;;;27.73;16.38;;;;;;;;;;5034909;28;20112;-83
2021/01/06 04:43:57;;;;;;;30.52;16.27;;;;;;;;;;5032876;28;20017;-83
2021/01/06 04:46:42;;;;;;;28.45;16.42;;;;;;;;;;5037937;28;20576;-82
2021/01/06 04:49:08;;;;;;;27.67;16.70;;;;;;;;;;5023078;28;20025;-82
2021/01/06 04:51:46;;;;;;;28.75;15.73;;;;;;;;;;5034629;28;20086;-82
2021/01/06 04:54:33;;;;;;;32.55;13.65;;;;;;;;;;5033392;28;20691;-82
2021/01/06 04:57:16;;;;;;;27.95;16.52;;;;;;;;;;5041840;28;20053;-82
2021/01/06 04:59:44;;;;;;;35.40;18.20;;;;;;;;;;5052814;28;20021;-82
2021/01/06 05:02:29;;;;;;;26.92;16.98;;;;;;;;;;5052344;28;20029;-82
2021/01/06 05:04:55;;;;;;;28.75;17.45;;;;;;;;;;5039381;28;20041;-82
2021/01/06 05:07:39;;;;;;;30.67;18.05;;;;;;;;;;5058866;28;20029;-82
2021/01/06 05:10:41;;;;;;;29.15;18.13;;;;;;;;;;5042679;28;20026;-82
2021/01/06 05:13:21;;;;;;;29.95;17.80;;;;;;;;;;4962235;28;20035;-82
2021/01/06 05:15:50;;;;;;;29.02;17.30;;;;;;;;;;5017787;28;20124;-82
2021/01/06 05:18:16;;;;;;;28.55;15.52;;;;;;;;;;5038991;28;20028;-82
2021/01/06 05:20:42;;;;;;;26.20;14.60;;;;;;;;;;5056850;28;20044;-83
2021/01/06 05:23:16;;;;;;;26.95;16.63;;;;;;;;;;5051924;28;20545;-83
2021/01/06 05:25:42;;;;;;;28.73;14.82;;;;;;;;;;5040766;28;20032;-82
2021/01/06 05:28:12;;;;;;;26.98;16.50;;;;;;;;;;5050481;28;20033;-82
2021/01/06 05:30:38;;;;;;;29.17;16.25;;;;;;;;;;5051320;28;20029;-82
2021/01/06 05:33:06;;;;;;;26.63;13.95;;;;;;;;;;5034762;28;20463;-83
2021/01/06 05:35:42;;;;;;;20.50;12.00;;;;;;;;;;5046842;28;20053;-85
2021/01/06 05:38:09;;;;;;;19.08;10.75;;;;;;;;;;5049411;28;20744;-83
2021/01/06 05:40:37;;;;;;;23.50;14.45;;;;;;;;;;5026320;28;20030;-82
2021/01/06 05:43:04;;;;;;;24.58;15.85;;;;;;;;;;5036436;28;20486;-83
2021/01/06 05:45:47;;;;;;;28.98;16.13;;;;;;;;;;5042920;28;20064;-82
2021/01/06 05:48:18;;;;;;;22.80;13.48;;;;;;;;;;5047268;28;20033;-82
2021/01/06 05:50:59;;;;;;;25.57;15.43;;;;;;;;;;5049211;28;20021;-82
2021/01/06 05:53:44;;;;;;;24.52;15.13;;;;;;;;;;5045863;28;20037;-83
2021/01/06 05:56:22;;;;;;;25.63;15.57;;;;;;;;;;5045611;28;20151;-82
2021/01/06 05:58:50;;;;;;;27.58;16.50;;;;;;;;;;5060743;28;20040;-82
2021/01/06 06:01:31;;;;;;;26.40;14.57;;;;;;;;;;5038380;28;20067;-83
2021/01/06 06:04:07;;;;;;;27.70;13.85;;;;;;;;;;5031731;28;20260;-82
2021/01/06 06:06:42;;;;;;;26.17;15.25;;;;;;;;;;5045825;28;20047;-83
2021/01/06 06:09:17;;;;;;;26.27;14.52;;;;;;;;;;5051472;28;20108;-83
2021/01/06 06:11:43;;;;;;;26.80;13.48;;;;;;;;;;5037794;28;20040;-83
2021/01/06 06:14:28;;;;;;;28.90;16.05;;;;;;;;;;5035648;28;20313;-84
2021/01/06 06:17:04;;;;;;;27.75;14.35;;;;;;;;;;5040115;28;20136;-83
2021/01/06 06:19:42;;;;;;;27.02;14.98;;;;;;;;;;5048903;28;20040;-83
2021/01/06 06:22:11;;;;;;;26.92;15.57;;;;;;;;;;5042044;28;20347;-83
2021/01/06 06:24:56;;;;;;;26.80;15.55;;;;;;;;;;5049189;28;20057;-83
2021/01/06 06:27:32;;;;;;;26.30;15.32;;;;;;;;;;5029904;28;20127;-83
2021/01/06 06:30:24;;;;;;;21.63;14.60;;;;;;;;;;5036471;28;20024;-83
2021/01/06 06:32:51;;;;;;;26.45;14.77;;;;;;;;;;5030471;28;20045;-83
2021/01/06 06:35:32;;;;;;;27.98;15.38;;;;;;;;;;5048764;28;20116;-83
2021/01/06 06:38:00;;;;;;;28.92;16.23;;;;;;;;;;5042585;28;20044;-83
2021/01/06 06:40:27;;;;;;;28.02;14.95;;;;;;;;;;5047975;28;20028;-84
2021/01/06 06:42:56;;;;;;;26.83;16.27;;;;;;;;;;5046221;28;20079;-84
2021/01/06 06:45:40;;;;;;;25.58;15.15;;;;;;;;;;5042630;28;20376;-84
2021/01/06 06:48:26;;;;;;;25.77;15.43;;;;;;;;;;5044733;28;20021;-83
2021/01/06 06:50:57;;;;;;;26.52;13.50;;;;;;;;;;5051629;28;20025;-84
2021/01/06 06:53:42;;;;;;;26.65;14.27;;;;;;;;;;5044951;28;20051;-84
2021/01/06 06:56:19;;;;;;;27.30;14.38;;;;;;;;;;5044086;28;20151;-83
2021/01/06 06:58:48;;;;;;;24.40;13.93;;;;;;;;;;5045307;28;20037;-84
2021/01/06 07:01:16;;;;;;;26.05;13.70;;;;;;;;;;5047769;28;20408;-83
2021/01/06 07:03:45;;;;;;;21.17;13.80;;;;;;;;;;5040075;28;20470;-83
2021/01/06 07:06:13;;;;;;;23.75;14.18;;;;;;;;;;5047795;28;20025;-84
2021/01/06 07:08:46;;;;;;;25.00;13.35;;;;;;;;;;5050021;28;20036;-84
2021/01/06 07:11:15;;;;;;;26.45;14.13;;;;;;;;;;5045657;28;20022;-85
2021/01/06 07:13:43;;;;;;;26.70;14.68;;;;;;;;;;5048286;28;20039;-84
2021/01/06 07:16:17;;;;;;;25.63;14.32;;;;;;;;;;5040752;28;20025;-85
2021/01/06 07:18:45;;;;;;;24.75;14.10;;;;;;;;;;5026014;28;20120;-84
2021/01/06 07:21:11;;;;;;;25.27;14.20;;;;;;;;;;5020084;28;20040;-84
2021/01/06 07:23:39;;;;;;;25.45;14.90;;;;;;;;;;5045271;28;20052;-85
2021/01/06 07:26:12;;;;;;;26.95;14.75;;;;;;;;;;5044436;28;20052;-85
2021/01/06 07:28:38;;;;;;;24.95;14.60;;;;;;;;;;5046403;28;20021;-85
2021/01/06 07:31:10;;;;;;;24.80;13.52;;;;;;;;;;5021362;28;20056;-85
2021/01/06 07:33:39;;;;;;;25.08;13.95;;;;;;;;;;5046892;28;20044;-85
2021/01/06 07:36:11;;;;;;;27.05;15.07;;;;;;;;;;5043360;28;20049;-84
2021/01/06 07:38:38;;;;;;;25.13;15.00;;;;;;;;;;5043115;28;20033;-84
2021/01/06 07:41:05;;;;;;;24.92;14.65;;;;;;;;;;5030797;28;20017;-84
2021/01/06 07:43:32;;;;;;;26.75;14.82;;;;;;;;;;5041715;28;20382;-86
2021/01/06 07:46:00;;;;;;;23.70;13.85;;;;;;;;;;5041264;28;20071;-84
2021/01/06 07:48:33;;;;;;;27.35;14.02;;;;;;;;;;5036857;28;20025;-84
2021/01/06 07:51:02;;;;;;;30.15;14.82;;;;;;;;;;5048027;28;20402;-84
2021/01/06 07:53:35;;;;;;;24.98;15.85;;;;;;;;;;5047977;28;20017;-84
2021/01/06 07:56:02;;;;;;;27.45;14.82;;;;;;;;;;5041311;28;20043;-85
2021/01/06 07:58:31;;;;;;;24.65;15.38;;;;;;;;;;5045668;28;20083;-83
2021/01/06 08:00:57;;;;;;;27.05;15.63;;;;;;;;;;5032137;28;20581;-84
2021/01/06 08:03:33;;;;;;;25.55;13.80;;;;;;;;;;5026656;28;20033;-82
2021/01/06 08:06:00;;;;;;;26.85;14.13;;;;;;;;;;5042021;28;20078;-81
2021/01/06 08:08:28;;;;;;;28.45;14.45;;;;;;;;;;5047141;28;20029;-81
2021/01/06 08:11:04;;;;;;;22.98;13.75;;;;;;;;;;5047260;28;20083;-82
2021/01/06 08:13:35;;;;;;;27.20;14.00;;;;;;;;;;5040573;28;20037;-82
2021/01/06 08:16:12;;;;;;;27.33;14.65;;;;;;;;;;5036788;28;20033;-81
2021/01/06 08:19:01;;;;;;;28.58;16.13;;;;;;;;;;5046181;28;20044;-82
2021/01/06 08:21:44;;;;;;;25.35;14.18;;;;;;;;;;5033349;28;20055;-82
2021/01/06 08:24:22;;;;;;;23.48;12.90;;;;;;;;;;5047368;28;20076;-86
2021/01/06 08:26:56;;;;;;;21.52;12.73;;;;;;;;;;5048861;28;20584;-81
2021/01/06 08:29:32;;;;;;;21.17;13.63;;;;;;;;;;5048914;28;20112;-83
2021/01/06 08:32:05;;;;;;;21.58;12.13;;;;;;;;;;5027169;28;20029;-83
2021/01/06 08:34:42;;;;;;;20.33;11.48;;;;;;;;;;5027295;28;20029;-83
2021/01/06 08:37:12;;;;;;;21.80;12.45;;;;;;;;;;5041293;28;20333;-82
2021/01/06 08:39:40;;;;;;;20.33;13.43;;;;;;;;;;5047130;28;20279;-82
2021/01/06 08:42:10;;;;;;;21.00;10.98;;;;;;;;;;5044521;28;20021;-82
2021/01/06 08:44:38;;;;;;;21.20;12.55;;;;;;;;;;5029079;28;20055;-81
2021/01/06 08:47:07;;;;;;;20.88;12.15;;;;;;;;;;5043364;28;20032;-83
2021/01/06 08:49:45;;;;;;;20.00;10.45;;;;;;;;;;5053747;28;20052;-81
2021/01/06 08:52:22;;;;;;;21.88;12.15;;;;;;;;;;5046727;28;20078;-82
2021/01/06 08:55:02;;;;;;;21.23;11.52;;;;;;;;;;5050223;28;20044;-80
2021/01/06 08:57:28;;;;;;;22.15;10.95;;;;;;;;;;5045458;28;20025;-82
2021/01/06 08:59:54;;;;;;;20.92;11.32;;;;;;;;;;5031949;28;20029;-81
2021/01/06 09:02:23;;;;;;;23.17;14.10;;;;;;;;;;5048640;28;20028;-83
2021/01/06 09:04:49;;;;;;;22.08;12.43;;;;;;;;;;5045529;28;20702;-81
2021/01/06 09:07:20;;;;;;;22.90;13.23;;;;;;;;;;5045274;28;20033;-82
2021/01/06 09:09:55;;;;;;;25.30;12.70;;;;;;;;;;5034575;28;20040;-82
2021/01/06 09:12:32;;;;;;;20.27;13.00;;;;;;;;;;5051874;28;20044;-82
2021/01/06 09:14:59;;;;;;;27.52;14.27;;;;;;;;;;5046317;28;20021;-83
2021/01/06 09:17:31;;;;;;;23.70;14.13;;;;;;;;;;5048526;28;20116;-83
2021/01/06 09:19:58;;;;;;;;;;;;;;;;;;5033844;28;20044;-82
2021/01/06 09:22:24;;;;;;;22.58;12.82;;;;;;;;;;5033237;28;19908;-82
2021/01/06 09:24:53;;;;;;;24.77;13.63;;;;;;;;;;5033044;28;20024;-81
2021/01/06 09:27:26;;;;;;;25.63;15.30;;;;;;;;;;5036527;28;20411;-82
2021/01/06 09:29:53;;;;;;;23.33;12.52;;;;;;;;;;5044207;28;20067;-83
2021/01/06 09:32:21;;;;;;;23.85;14.95;;;;;;;;;;5033978;28;20025;-82
2021/01/06 09:34:50;;;;;;;23.00;12.40;;;;;;;;;;5046966;28;20064;-82
2021/01/06 09:37:21;;;;;;;25.20;14.98;;;;;;;;;;5032233;28;20041;-81
2021/01/06 09:39:48;;;;;;;25.60;14.10;;;;;;;;;;5029665;28;20548;-82
2021/01/06 09:42:14;;;;;;;25.85;14.43;;;;;;;;;;5034102;28;20418;-82
2021/01/06 09:44:42;;;;;;;25.27;13.27;;;;;;;;;;5049305;28;20043;-82
2021/01/06 09:47:44;;;;;;;25.25;14.40;;;;;;;;;;5031992;28;20205;-81
2021/01/06 09:50:21;;;;;;;26.48;16.15;;;;;;;;;;4961775;28;20031;-82
2021/01/06 09:52:48;;;;;;;27.85;14.95;;;;;;;;;;5040070;28;20017;-82
2021/01/06 09:55:16;;;;;;;27.77;15.93;;;;;;;;;;5048440;28;20025;-81
2021/01/06 09:57:43;;;;;;;28.83;15.57;;;;;;;;;;5038462;28;20080;-82
2021/01/06 10:00:30;;;;;;;28.75;14.55;;;;;;;;;;5046008;28;20116;-82
2021/01/06 10:02:56;;;;;;;24.05;13.98;;;;;;;;;;5009682;28;20033;-83
2021/01/06 10:05:22;;;;;;;25.95;15.88;;;;;;;;;;5046846;28;20025;-81
2021/01/06 10:08:02;;;;;;;31.02;16.45;;;;;;;;;;5031017;28;20037;-81
2021/01/06 10:10:29;;;;;;;26.88;14.65;;;;;;;;;;5030793;28;20041;-81
2021/01/06 10:13:15;;;;;;;26.98;14.27;;;;;;;;;;5044025;28;20513;-81
2021/01/06 10:15:49;;;;;;;28.88;14.88;;;;;;;;;;5029866;28;20069;-82
2021/01/06 10:18:18;;;;;;;24.23;14.02;;;;;;;;;;5031749;28;20052;-82
2021/01/06 10:20:48;;;;;;;30.13;15.45;;;;;;;;;;5047988;28;20087;-84
2021/01/06 10:23:35;;;;;;;27.92;14.43;;;;;;;;;;5046425;28;20070;-83
2021/01/06 10:26:16;;;;;;;27.02;15.25;;;;;;;;;;5042217;28;20552;-81
2021/01/06 10:28:44;;;;;;;25.17;15.00;;;;;;;;;;5049626;28;20110;-82
2021/01/06 10:31:12;;;;;;;29.15;16.73;;;;;;;;;;5029986;28;20060;-81
2021/01/06 10:33:58;;;;;;;26.92;15.27;;;;;;;;;;5032764;28;20029;-82
2021/01/06 10:36:42;;;;;;;32.10;17.85;;;;;;;;;;5047571;28;20191;-82
2021/01/06 10:39:20;;;;;;;27.20;15.40;;;;;;;;;;5043747;28;20036;-85
2021/01/06 10:41:57;;;;;;;36.58;16.02;;;;;;;;;;5042297;28;20028;-84
2021/01/06 10:44:28;;;;;;;24.55;15.75;;;;;;;;;;5034926;28;20450;-87
2021/01/06 10:46:55;;;;;;;26.55;14.93;;;;;;;;;;5052908;28;20033;-91
2021/01/06 10:49:21;;;;;;;26.33;14.68;;;;;;;;;;5050381;28;20573;-86
2021/01/06 10:51:57;;;;;;;26.50;15.38;;;;;;;;;;5032237;28;20029;-86
2021/01/06 10:54:45;;;;;;;29.88;17.88;;;;;;;;;;5030114;28;20363;-88
2021/01/06 10:57:20;;;;;;;27.10;14.88;;;;;;;;;;5043983;28;20056;-83
2021/01/06 11:00:05;;;;;;;25.60;16.02;;;;;;;;;;5029678;28;20044;-85
2021/01/06 11:02:54;;;;;;;26.65;15.65;;;;;;;;;;5043449;28;20021;-88
2021/01/06 11:05:26;;;;;;;27.33;15.18;;;;;;;;;;5029681;28;20037;-89
2021/01/06 11:07:52;;;;;;;25.05;14.70;;;;;;;;;;5048455;28;20500;-90
2021/01/06 11:10:24;;;;;;;28.52;16.50;;;;;;;;;;5033148;28;20322;-88
2021/01/06 11:13:03;;;;;;;24.25;14.23;;;;;;;;;;5050127;28;20028;-90
2021/01/06 11:15:58;;;;;;;22.90;14.85;;;;;;;;;;5025833;28;20047;-89
2021/01/06 11:18:24;;;;;;;23.73;15.48;;;;;;;;;;4961526;28;20039;-88
2021/01/06 11:21:07;;;;;;;24.20;14.75;;;;;;;;;;5046603;28;20026;-82
2021/01/06 11:23:44;;;;;;;23.92;15.07;;;;;;;;;;5050021;28;20482;-86
2021/01/06 11:26:24;;;;;;;23.95;13.98;;;;;;;;;;5045609;28;20025;-83
2021/01/06 11:29:02;;;;;;;25.33;13.85;;;;;;;;;;5037050;28;20041;-84
2021/01/06 11:31:35;;;;;;;28.30;16.27;;;;;;;;;;5031794;28;20041;-84
2021/01/06 11:34:08;;;;;;;26.60;15.77;;;;;;;;;;5039289;28;20029;-84
2021/01/06 11:36:53;;;;;;;25.88;15.27;;;;;;;;;;5014383;28;20038;-85
2021/01/06 11:39:29;;;;;;;27.33;15.85;;;;;;;;;;5024968;28;20484;-86
2021/01/06 11:42:13;;;;;;;24.83;14.63;;;;;;;;;;5030732;28;20037;-84
2021/01/06 11:44:46;;;;;;;25.88;14.50;;;;;;;;;;5023339;28;20520;-84
2021/01/06 11:47:32;;;;;;;22.27;13.85;;;;;;;;;;5025905;28;20021;-85
2021/01/06 11:50:17;;;;;;;27.13;14.18;;;;;;;;;;5022763;28;20484;-84
2021/01/06 11:52:45;;;;;;;24.42;15.63;;;;;;;;;;5020947;28;20033;-85
2021/01/06 11:55:21;;;;;;;24.27;14.32;;;;;;;;;;5023081;28;20030;-86
2021/01/06 11:57:51;;;;;;;24.05;14.55;;;;;;;;;;5028370;28;20021;-87
2021/01/06 12:00:35;;;;;;;22.00;13.13;;;;;;;;;;5025146;28;20025;-85
2021/01/06 12:03:07;;;;;;;23.15;13.65;;;;;;;;;;5024434;28;20037;-84
2021/01/06 12:05:35;;;;;;;19.95;13.23;;;;;;;;;;5026366;28;20525;-83
2021/01/06 12:08:04;;;;;;;21.40;12.43;;;;;;;;;;5027341;28;20071;-85
2021/01/06 12:10:42;;;;;;;21.13;12.32;;;;;;;;;;5028835;28;20029;-84
2021/01/06 12:13:28;;;;;;;22.98;12.82;;;;;;;;;;5023409;28;20099;-87
2021/01/06 12:16:00;;;;;;;19.00;11.30;;;;;;;;;;5020347;28;20120;-82
2021/01/06 12:18:30;;;;;;;21.98;12.68;;;;;;;;;;5022563;28;20029;-84
2021/01/06 12:20:57;;;;;;;22.90;12.57;;;;;;;;;;5027758;28;20033;-85
2021/01/06 12:23:26;;;;;;;24.60;14.55;;;;;;;;;;5027869;28;20029;-83
2021/01/06 12:25:57;;;;;;;21.67;12.68;;;;;;;;;;5026601;28;20491;-84
2021/01/06 12:28:35;;;;;;;22.50;12.18;;;;;;;;;;5034306;28;20112;-83
2021/01/06 12:31:15;;;;;;;23.45;13.48;;;;;;;;;;5030543;28;20128;-83
2021/01/06 12:34:03;;;;;;;20.67;13.30;;;;;;;;;;5028557;28;20033;-83
2021/01/06 12:36:30;;;;;;;24.77;12.73;;;;;;;;;;5028309;28;20029;-82
2021/01/06 12:39:16;;;;;;;21.13;13.48;;;;;;;;;;5049612;28;20043;-84
2021/01/06 12:41:48;;;;;;;23.48;13.52;;;;;;;;;;5047187;28;20025;-84
2021/01/06 12:44:19;;;;;;;17.50;10.27;;;;;;;;;;5030606;28;20302;-83
2021/01/06 12:46:48;;;;;;;20.50;12.48;;;;;;;;;;5046997;28;20029;-84
2021/01/06 12:49:21;;;;;;;20.08;12.02;;;;;;;;;;5032373;28;20013;-86
2021/01/06 12:51:50;;;;;;;18.55;11.38;;;;;;;;;;5052327;28;20104;-87
2021/01/06 12:54:18;;;;;;;23.33;12.20;;;;;;;;;;5050975;28;20346;-92
2021/01/06 12:56:44;;;;;;;21.27;13.35;;;;;;;;;;5048043;28;20089;-90
2021/01/06 12:59:15;;;;;;;18.95;12.13;;;;;;;;;;5035026;28;20029;-91
2021/01/06 13:01:44;;;;;;;22.33;12.13;;;;;;;;;;5035059;28;20033;-85
2021/01/06 13:04:10;;;;;;;20.83;13.00;;;;;;;;;;5051323;28;20998;-84
2021/01/06 13:06:55;;;;;;;19.98;12.27;;;;;;;;;;5050207;28;20027;-85
2021/01/06 13:09:30;;;;;;;22.55;11.95;;;;;;;;;;5031472;28;20056;-84
2021/01/06 13:12:18;;;;;;;19.85;11.68;;;;;;;;;;5034424;28;20068;-87
2021/01/06 13:15:05;;;;;;;25.48;11.55;;;;;;;;;;5043430;28;20026;-87
2021/01/06 13:17:37;;;;;;;21.73;12.70;;;;;;;;;;5040972;28;20465;-86
2021/01/06 13:20:17;;;;;;;20.38;11.77;;;;;;;;;;5051140;28;20049;-86
2021/01/06 13:22:43;;;;;;;19.05;10.75;;;;;;;;;;5051517;28;20033;-86
2021/01/06 13:25:28;;;;;;;17.85;10.73;;;;;;;;;;5030890;28;20029;-87
2021/01/06 13:28:13;;;;;;;23.38;11.90;;;;;;;;;;5047933;28;20076;-89
2021/01/06 13:30:44;;;;;;;19.67;11.90;;;;;;;;;;5034691;28;20063;-88
2021/01/06 13:33:16;;;;;;;19.90;11.43;;;;;;;;;;5033152;28;20091;-85
2021/01/06 13:35:48;;;;;;;22.00;11.07;;;;;;;;;;5042598;28;20087;-84
2021/01/06 13:38:20;;;;;;;20.30;10.38;;;;;;;;;;5029364;28;20079;-84
2021/01/06 13:40:48;;;;;;;20.17;11.25;;;;;;;;;;5050849;28;20443;-84
2021/01/06 13:43:21;;;;;;;18.98;10.48;;;;;;;;;;5042097;28;20013;-85
2021/01/06 13:46:02;;;;;;;18.75;11.40;;;;;;;;;;5027571;28;20031;-89
2021/01/06 13:48:28;;;;;;;21.90;11.43;;;;;;;;;;5055317;28;20084;-87
2021/01/06 13:50:59;;;;;;;19.08;9.55;;;;;;;;;;5039284;28;20496;-88
2021/01/06 13:53:25;;;;;;;17.17;9.02;;;;;;;;;;5034863;28;20025;-87
2021/01/06 13:55:58;;;;;;;15.80;9.52;;;;;;;;;;5048670;28;20040;-84
2021/01/06 13:58:27;;;;;;;17.38;10.32;;;;;;;;;;5042885;28;20033;-83
2021/01/06 14:00:59;;;;;;;18.92;10.18;;;;;;;;;;5053004;28;20041;-84
2021/01/06 14:03:29;;;;;;;16.77;9.15;;;;;;;;;;5030732;28;20037;-83
2021/01/06 14:06:04;;;;;;;17.83;9.73;;;;;;;;;;5043427;28;20037;-84
2021/01/06 14:08:30;;;;;;;18.35;9.25;;;;;;;;;;5026665;28;20021;-84
2021/01/06 14:10:59;;;;;;;20.85;9.48;;;;;;;;;;5019032;28;20087;-83
2021/01/06 14:13:48;;;;;;;19.45;9.90;;;;;;;;;;5034851;28;20060;-84
2021/01/06 14:16:18;;;;;;;21.50;10.57;;;;;;;;;;5035866;28;20407;-83
2021/01/06 14:19:16;;;;;;;21.80;8.90;;;;;;;;;;5050625;28;20025;-84
2021/01/06 14:21:51;;;;;;;18.45;9.80;;;;;;;;;;5052365;28;20037;-83
2021/01/06 14:24:23;;;;;;;17.38;8.85;;;;;;;;;;5031976;28;20224;-83
2021/01/06 14:26:49;;;;;;;;;;;;;;;;;;5061088;28;20025;-85
2021/01/06 14:29:34;;;;;;;20.55;10.70;;;;;;;;;;5032529;28;20707;-85
2021/01/06 14:34:41;;;;;;;19.70;9.77;;;;;;;;;;5086991;22;20049;-82
2021/01/06 14:37:07;;;;;;;16.02;8.43;;;;;;;;;;5074231;28;20031;-83
2021/01/06 14:39:41;;;;;;;14.75;7.00;;;;;;;;;;5063319;28;20399;-82
2021/01/06 14:42:21;;;;;;;15.93;6.68;;;;;;;;;;5069217;28;20111;-82
2021/01/06 14:45:06;;;;;;;13.82;6.57;;;;;;;;;;5068593;28;20215;-82
2021/01/06 14:47:45;;;;;;;14.95;7.40;;;;;;;;;;5059721;28;20020;-82
2021/01/06 14:50:11;;;;;;;16.88;7.10;;;;;;;;;;5069455;28;20020;-83